Time;durP1;ratioP1;P1;durP2;ratioP2;P2;SDS_P1;SDS_P2;PMS_P1;PMS_P2;Temp;Humidity;BMP_temperature;BMP_pressure;BME280_temperature;BME280_humidity;BME280_pressure;Samples;Min_cycle;Max_cycle;Signal;HPM_P1;HPM_P2
2023/04/28 00:03:18;;;;;;;7.63;4.75;;;17.70;85.60;;;;;;10137663;28;20485;-61
2023/04/28 00:08:08;;;;;;;9.50;5.10;;;17.60;85.80;;;;;;10155857;28;20028;-60
2023/04/28 00:12:59;;;;;;;6.82;4.53;;;17.60;86.00;;;;;;10164757;28;20041;-61
2023/04/28 00:17:50;;;;;;;7.38;4.60;;;17.50;86.30;;;;;;10152152;28;20347;-61
2023/04/28 00:22:41;;;;;;;6.18;4.15;;;17.60;86.60;;;;;;10143727;28;20032;-61
2023/04/28 00:27:35;;;;;;;8.30;4.50;;;17.60;86.50;;;;;;10154484;28;20039;-61
2023/04/28 00:32:25;;;;;;;8.52;5.00;;;17.60;86.90;;;;;;10167396;28;20047;-62
2023/04/28 00:37:16;;;;;;;6.57;4.25;;;17.60;87.30;;;;;;10160530;28;20024;-64
2023/04/28 00:42:07;;;;;;;6.07;4.20;;;17.50;87.50;;;;;;10157080;28;20090;-61
2023/04/28 00:46:58;;;;;;;6.32;3.95;;;17.50;87.80;;;;;;10167058;28;20473;-63
2023/04/28 00:51:48;;;;;;;5.18;3.88;;;17.40;88.00;;;;;;10158723;28;20283;-60
2023/04/28 00:56:39;;;;;;;7.05;4.78;;;17.40;88.20;;;;;;10166709;28;20274;-60
2023/04/28 01:01:31;;;;;;;5.07;3.40;;;17.30;88.70;;;;;;10155945;28;20044;-62
2023/04/28 01:06:22;;;;;;;5.45;3.22;;;17.20;89.10;;;;;;10165720;28;20084;-62
2023/04/28 01:11:15;;;;;;;6.20;3.40;;;17.10;89.50;;;;;;10165524;28;20031;-61
2023/04/28 01:16:06;;;;;;;6.30;3.45;;;17.00;89.70;;;;;;10152620;28;20043;-61
2023/04/28 01:20:57;;;;;;;3.00;2.58;;;16.80;90.10;;;;;;10134792;28;20040;-60
2023/04/28 01:25:48;;;;;;;5.70;2.60;;;16.70;90.20;;;;;;10151883;28;20024;-61
2023/04/28 01:30:38;;;;;;;7.15;3.05;;;16.60;90.50;;;;;;10155363;28;20061;-60
2023/04/28 01:35:29;;;;;;;3.58;3.28;;;16.70;90.40;;;;;;10173534;28;20115;-63
2023/04/28 01:40:20;;;;;;;5.57;3.38;;;16.60;90.50;;;;;;10156063;28;20095;-63
2023/04/28 01:45:11;;;;;;;4.80;2.80;;;16.60;90.80;;;;;;10154476;28;20074;-64
2023/04/28 01:50:02;;;;;;;4.70;3.22;;;16.50;91.00;;;;;;10167055;28;20052;-65
2023/04/28 01:54:53;;;;;;;4.97;3.08;;;16.40;91.10;;;;;;10158664;28;20024;-60
2023/04/28 01:59:44;;;;;;;6.47;3.17;;;16.40;91.20;;;;;;10162996;28;20529;-61
2023/04/28 02:04:37;;;;;;;4.15;2.92;;;16.40;91.40;;;;;;10161108;28;20113;-64
2023/04/28 02:09:27;;;;;;;4.78;3.05;;;16.30;91.70;;;;;;10144823;28;20027;-64
2023/04/28 02:14:18;;;;;;;4.68;3.25;;;16.30;91.90;;;;;;10142055;28;20028;-64
2023/04/28 02:19:08;;;;;;;5.28;3.90;;;16.40;92.00;;;;;;10161899;28;20078;-62
2023/04/28 02:23:59;;;;;;;4.13;2.97;;;16.40;92.20;;;;;;10138285;28;20137;-65
2023/04/28 02:28:50;;;;;;;5.45;3.53;;;16.40;92.30;;;;;;10161974;28;20485;-61
2023/04/28 02:33:43;;;;;;;4.05;3.22;;;16.30;92.60;;;;;;10167574;28;20029;-64
2023/04/28 02:38:34;;;;;;;6.55;2.60;;;16.30;92.70;;;;;;10162359;28;20036;-65
2023/04/28 02:43:26;;;;;;;4.13;3.05;;;16.50;92.80;;;;;;10152610;28;20036;-64
2023/04/28 02:48:16;;;;;;;4.72;3.10;;;16.30;93.10;;;;;;10164660;28;20059;-62
2023/04/28 02:53:07;;;;;;;4.78;3.45;;;16.40;93.30;;;;;;10158445;28;20028;-61
2023/04/28 02:57:57;;;;;;;4.35;2.63;;;16.30;93.40;;;;;;10159592;28;20020;-64
2023/04/28 03:02:48;;;;;;;5.03;3.20;;;16.20;93.70;;;;;;10153252;28;20489;-62
2023/04/28 03:07:39;;;;;;;6.32;3.13;;;16.10;93.90;;;;;;10154955;28;20102;-63
2023/04/28 03:12:29;;;;;;;3.33;2.50;;;16.00;94.30;;;;;;10153359;28;20224;-64
2023/04/28 03:17:20;;;;;;;6.03;3.42;;;15.90;94.60;;;;;;10164938;28;20180;-64
2023/04/28 03:22:10;;;;;;;4.50;2.90;;;15.80;94.80;;;;;;10150112;28;20546;-64
2023/04/28 03:27:02;;;;;;;3.75;2.90;;;15.70;95.10;;;;;;10162903;28;20504;-64
2023/04/28 03:31:53;;;;;;;4.55;2.15;;;15.60;95.40;;;;;;10163879;28;20043;-60
2023/04/28 03:36:43;;;;;;;3.55;2.42;;;15.40;95.70;;;;;;10162788;28;20459;-62
2023/04/28 03:41:34;;;;;;;5.03;2.47;;;15.40;96.00;;;;;;10166924;28;20038;-63
2023/04/28 03:46:25;;;;;;;4.05;2.45;;;15.40;96.20;;;;;;10165672;28;20047;-65
2023/04/28 03:51:15;;;;;;;3.95;2.80;;;15.30;96.30;;;;;;10163028;28;20128;-66
2023/04/28 03:56:06;;;;;;;2.95;2.25;;;15.30;96.60;;;;;;10159098;28;20024;-66
2023/04/28 04:00:59;;;;;;;2.95;2.35;;;15.10;96.90;;;;;;10163435;28;20086;-60
2023/04/28 04:05:50;;;;;;;4.03;2.78;;;15.20;97.30;;;;;;10157507;28;20036;-66
2023/04/28 04:10:40;;;;;;;4.68;2.42;;;15.20;97.30;;;;;;10168870;28;20021;-67
2023/04/28 04:15:31;;;;;;;3.50;2.33;;;15.10;97.60;;;;;;10163418;28;20397;-67
2023/04/28 04:20:22;;;;;;;5.60;2.55;;;15.00;98.00;;;;;;10154982;28;20033;-65
2023/04/28 04:25:12;;;;;;;3.75;2.47;;;15.10;98.20;;;;;;10163542;28;20089;-66
2023/04/28 04:30:04;;;;;;;4.43;2.47;;;15.00;98.50;;;;;;10153424;28;20108;-67
2023/04/28 04:34:54;;;;;;;3.00;2.10;;;14.90;98.80;;;;;;10162905;28;20107;-64
2023/04/28 04:39:45;;;;;;;4.63;2.80;;;14.80;99.30;;;;;;10175188;28;20147;-67
2023/04/28 04:44:35;;;;;;;4.82;1.95;;;14.80;99.60;;;;;;10156409;28;20462;-67
2023/04/28 04:49:26;;;;;;;5.13;2.45;;;14.90;99.90;;;;;;10160345;28;20051;-65
2023/04/28 04:54:17;;;;;;;3.83;1.90;;;14.80;99.90;;;;;;10169384;28;20382;-65
2023/04/28 04:59:07;;;;;;;2.38;1.85;;;15.00;99.90;;;;;;10156012;28;20099;-62
2023/04/28 05:03:58;;;;;;;3.53;2.13;;;15.10;99.90;;;;;;10129984;28;20036;-60
2023/04/28 05:08:48;;;;;;;4.88;2.10;;;15.10;99.90;;;;;;10156793;28;20023;-62
2023/04/28 05:13:39;;;;;;;3.70;1.85;;;15.10;99.90;;;;;;10166613;28;20027;-64
2023/04/28 05:18:30;;;;;;;4.68;2.30;;;15.10;99.90;;;;;;10119615;28;20500;-66
2023/04/28 05:23:21;;;;;;;3.63;2.33;;;15.10;99.90;;;;;;10143366;28;20398;-61
2023/04/28 05:28:11;;;;;;;4.63;1.90;;;15.10;99.90;;;;;;10136798;28;20600;-65
2023/04/28 05:33:02;;;;;;;4.38;1.98;;;15.10;99.90;;;;;;10155632;28;20105;-62
2023/04/28 05:37:52;;;;;;;4.05;2.10;;;15.20;99.90;;;;;;10162724;28;20378;-62
2023/04/28 05:42:43;;;;;;;4.25;2.20;;;15.30;99.90;;;;;;10140479;28;20037;-64
2023/04/28 05:47:34;;;;;;;2.40;1.80;;;15.40;99.90;;;;;;10163791;28;20418;-60
2023/04/28 05:52:24;;;;;;;6.18;2.42;;;15.40;99.90;;;;;;10159372;28;20481;-63
2023/04/28 05:57:15;;;;;;;3.33;2.00;;;15.30;99.90;;;;;;10162887;28;20497;-65
2023/04/28 06:02:06;;;;;;;4.60;1.85;;;15.30;99.90;;;;;;10158089;28;20040;-64
2023/04/28 06:06:57;;;;;;;3.15;1.60;;;15.50;99.90;;;;;;10156816;28;20033;-60
2023/04/28 06:11:47;;;;;;;3.35;2.05;;;15.50;99.90;;;;;;10154688;28;20173;-63
2023/04/28 06:16:38;;;;;;;2.50;1.90;;;15.40;99.90;;;;;;10167114;28;20023;-61
2023/04/28 06:21:28;;;;;;;3.45;1.83;;;15.40;99.90;;;;;;10139814;28;20120;-60
2023/04/28 06:26:19;;;;;;;3.17;2.08;;;15.40;99.90;;;;;;10153776;28;20029;-60
2023/04/28 06:31:10;;;;;;;3.35;1.90;;;15.30;99.90;;;;;;10143982;28;20391;-63
2023/04/28 06:36:00;;;;;;;2.45;2.00;;;15.40;99.90;;;;;;10153438;28;20115;-61
2023/04/28 06:40:51;;;;;;;3.25;2.45;;;15.60;99.90;;;;;;10165545;28;20044;-62
2023/04/28 06:45:42;;;;;;;9.35;2.80;;;15.40;99.90;;;;;;10160858;28;20031;-61
2023/04/28 06:50:32;;;;;;;4.97;2.25;;;15.40;99.90;;;;;;10142807;28;20135;-63
2023/04/28 06:55:23;;;;;;;3.10;2.17;;;15.50;99.90;;;;;;10148194;28;20386;-60
2023/04/28 07:00:14;;;;;;;3.10;2.53;;;15.50;99.90;;;;;;10172646;28;20033;-60
2023/04/28 07:05:05;;;;;;;2.80;2.50;;;15.40;99.90;;;;;;10172402;28;20186;-60
2023/04/28 07:09:56;;;;;;;2.72;2.13;;;15.40;99.90;;;;;;10159744;28;20424;-60
2023/04/28 07:14:47;;;;;;;3.30;2.03;;;15.40;99.90;;;;;;10172183;28;20028;-60
2023/04/28 07:19:37;;;;;;;4.15;2.47;;;15.30;99.90;;;;;;10152921;28;20477;-59
2023/04/28 07:24:29;;;;;;;2.88;2.00;;;15.30;99.90;;;;;;10151015;28;20472;-61
2023/04/28 07:29:20;;;;;;;3.13;2.42;;;15.40;99.90;;;;;;10167304;28;20035;-61
2023/04/28 07:34:10;;;;;;;6.85;2.92;;;15.50;99.90;;;;;;10158630;28;20033;-65
2023/04/28 07:39:01;;;;;;;2.60;2.05;;;15.60;99.90;;;;;;10171917;28;20020;-60
2023/04/28 07:43:52;;;;;;;4.20;2.60;;;15.80;99.90;;;;;;10145439;28;20109;-61
2023/04/28 07:48:42;;;;;;;5.03;2.53;;;15.80;99.90;;;;;;10153193;28;20052;-60
2023/04/28 07:53:33;;;;;;;4.68;2.58;;;15.80;99.90;;;;;;10169161;28;20028;-66
2023/04/28 07:58:24;;;;;;;4.07;3.47;;;15.70;99.90;;;;;;10152935;28;20479;-63
2023/04/28 08:03:15;;;;;;;5.20;2.70;;;15.80;99.90;;;;;;10140195;28;20035;-61
2023/04/28 08:08:06;;;;;;;3.65;2.38;;;15.90;99.90;;;;;;10170332;28;20105;-65
2023/04/28 08:12:56;;;;;;;4.75;2.90;;;15.90;99.90;;;;;;10170522;28;20123;-64
2023/04/28 08:17:47;;;;;;;2.95;1.67;;;15.80;99.90;;;;;;10158248;28;20036;-60
2023/04/28 08:22:38;;;;;;;3.58;1.95;;;15.70;99.90;;;;;;10151340;28;20032;-67
2023/04/28 08:27:29;;;;;;;2.97;2.17;;;15.80;99.90;;;;;;10166982;28;20417;-62
2023/04/28 08:32:20;;;;;;;3.28;1.95;;;16.10;99.90;;;;;;10149777;28;20028;-64
2023/04/28 08:37:11;;;;;;;3.05;2.08;;;16.40;99.90;;;;;;10169388;28;20420;-67
2023/04/28 08:42:04;;;;;;;2.78;1.83;;;16.60;99.90;;;;;;10148535;28;20045;-62
2023/04/28 08:46:58;;;;;;;3.67;2.25;;;16.70;99.90;;;;;;10155743;28;20222;-62
2023/04/28 08:51:58;;;;;;;3.63;1.95;;;16.70;99.90;;;;;;10149685;28;20040;-61
2023/04/28 08:56:50;;;;;;;3.08;2.00;;;16.90;99.90;;;;;;10163972;28;20090;-61
2023/04/28 09:01:40;;;;;;;2.75;2.20;;;16.90;99.90;;;;;;10153183;28;20486;-67
2023/04/28 09:06:36;;;;;;;2.90;1.83;;;17.10;99.90;;;;;;10127208;28;20141;-64
2023/04/28 09:11:27;;;;;;;4.28;2.80;;;17.40;99.90;;;;;;10136638;28;20043;-63
2023/04/28 09:16:17;;;;;;;3.67;2.72;;;17.50;99.90;;;;;;10105681;28;20039;-64
2023/04/28 09:21:09;;;;;;;3.42;2.60;;;17.50;99.90;;;;;;10129215;28;20127;-60
2023/04/28 09:26:06;;;;;;;5.00;2.50;;;17.50;99.90;;;;;;10162798;28;20024;-62
2023/04/28 09:30:57;;;;;;;9.48;2.65;;;17.30;99.90;;;;;;10152080;28;20132;-60
2023/04/28 09:35:48;;;;;;;11.10;3.03;;;17.50;99.90;;;;;;10141896;28;20562;-60
2023/04/28 09:40:55;;;;;;;6.25;2.67;;;17.60;99.90;;;;;;10138327;28;20078;-63
2023/04/28 09:45:46;;;;;;;3.53;2.58;;;18.10;99.90;;;;;;10139471;28;20363;-63
2023/04/28 09:50:40;;;;;;;3.55;2.80;;;18.30;99.90;;;;;;10142415;28;20068;-62
2023/04/28 09:55:35;;;;;;;4.43;3.30;;;18.40;99.90;;;;;;10138213;28;20036;-62
2023/04/28 10:00:26;;;;;;;;;;;18.50;99.90;;;;;;10143583;28;20025;-64
2023/04/28 10:05:17;;;;;;;2.38;2.00;;;18.50;99.90;;;;;;10137101;28;19908;-62
2023/04/28 10:10:08;;;;;;;4.13;2.55;;;18.50;99.90;;;;;;10139117;28;20028;-63
2023/04/28 10:14:59;;;;;;;4.53;2.58;;;18.80;99.90;;;;;;10139390;28;20551;-68
2023/04/28 10:19:51;;;;;;;4.38;2.25;;;19.00;99.90;;;;;;10133557;28;20111;-59
2023/04/28 10:25:00;;;;;;;4.78;2.72;;;18.80;99.90;;;;;;10147756;28;20097;-62
2023/04/28 10:29:51;;;;;;;3.10;1.95;;;18.80;99.90;;;;;;10157009;28;20017;-61
2023/04/28 10:34:42;;;;;;;2.83;2.15;;;18.90;99.90;;;;;;10170552;28;20103;-61
2023/04/28 10:39:33;;;;;;;3.65;2.67;;;19.20;99.90;;;;;;10141372;28;20390;-60
2023/04/28 10:44:29;;;;;;;3.20;2.17;;;19.50;99.90;;;;;;10129117;28;20035;-61
2023/04/28 10:49:20;;;;;;;2.80;1.90;;;19.50;99.90;;;;;;10136419;28;20061;-60
2023/04/28 10:54:14;;;;;;;3.10;2.17;;;19.80;99.90;;;;;;10137181;28;20482;-63
2023/04/28 10:59:25;;;;;;;3.37;2.30;;;19.90;99.90;;;;;;10144709;28;20113;-60
2023/04/28 11:04:16;;;;;;;3.17;1.95;;;20.40;99.90;;;;;;10121475;28;20052;-63
2023/04/28 11:09:19;;;;;;;2.50;1.90;;;20.60;99.90;;;;;;10099736;28;20029;-59
2023/04/28 11:14:17;;;;;;;3.03;1.65;;;20.40;99.90;;;;;;10141042;28;20017;-60
2023/04/28 11:19:11;;;;;;;5.80;2.88;;;20.20;99.90;;;;;;10125795;28;20029;-60
2023/04/28 11:24:09;;;;;;;3.63;1.92;;;20.10;99.90;;;;;;10122465;28;20127;-61
2023/04/28 11:28:59;;;;;;;2.13;1.35;;;19.60;99.90;;;;;;10122082;28;20119;-60
2023/04/28 11:34:05;;;;;;;3.17;2.20;;;19.20;99.90;;;;;;10121815;28;20135;-59
2023/04/28 11:38:56;;;;;;;4.25;2.63;;;19.10;99.90;;;;;;10168252;28;20476;-63
2023/04/28 11:43:47;;;;;;;4.47;2.10;;;19.10;99.90;;;;;;10145290;28;20111;-61
2023/04/28 11:48:38;;;;;;;4.15;2.75;;;18.90;99.90;;;;;;10153973;28;20051;-62
2023/04/28 11:53:44;;;;;;;2.42;2.13;;;18.90;99.90;;;;;;10160288;28;20029;-63
2023/04/28 11:58:35;;;;;;;4.85;2.60;;;18.70;99.90;;;;;;10156629;28;20500;-61
2023/04/28 12:03:25;;;;;;;4.45;2.00;;;18.80;99.90;;;;;;10165745;28;20127;-62
2023/04/28 12:08:30;;;;;;;6.53;2.58;;;19.10;99.90;;;;;;10139701;28;20460;-60
2023/04/28 12:13:20;;;;;;;3.30;2.28;;;19.10;99.90;;;;;;10138427;28;20139;-62
2023/04/28 12:18:11;;;;;;;4.32;2.55;;;19.00;99.90;;;;;;10146294;28;20142;-60
2023/04/28 12:23:02;;;;;;;2.80;2.00;;;19.00;99.90;;;;;;10149948;28;20461;-60
2023/04/28 12:28:06;;;;;;;6.28;2.30;;;19.20;99.90;;;;;;10157665;28;20036;-65
2023/04/28 12:32:57;;;;;;;4.10;1.90;;;19.30;99.90;;;;;;10160332;28;20035;-60
2023/04/28 12:37:48;;;;;;;5.05;2.50;;;19.10;99.90;;;;;;10151384;28;20032;-60
2023/04/28 12:42:39;;;;;;;3.25;2.55;;;19.00;99.90;;;;;;10146401;28;20040;-62
2023/04/28 12:47:30;;;;;;;2.90;2.08;;;19.00;99.90;;;;;;10148367;28;20119;-62
2023/04/28 12:52:21;;;;;;;4.50;2.67;;;18.80;99.90;;;;;;10160394;28;20032;-61
2023/04/28 12:57:13;;;;;;;3.53;2.40;;;18.60;99.90;;;;;;10165538;28;20186;-61
2023/04/28 13:02:03;;;;;;;3.63;1.98;;;18.80;99.90;;;;;;10166364;28;20486;-64
2023/04/28 13:06:54;;;;;;;2.83;1.85;;;18.70;99.90;;;;;;10154058;28;20028;-64
2023/04/28 13:11:45;;;;;;;4.25;2.72;;;18.50;99.90;;;;;;10145970;28;20063;-61
2023/04/28 13:16:36;;;;;;;2.83;2.42;;;18.60;99.90;;;;;;10146384;28;20020;-62
2023/04/28 13:21:27;;;;;;;2.95;2.15;;;18.60;99.90;;;;;;10125700;28;20078;-62
2023/04/28 13:26:19;;;;;;;1.92;1.60;;;18.80;99.90;;;;;;10146319;28;20497;-63
2023/04/28 13:31:09;;;;;;;3.28;1.85;;;19.40;99.90;;;;;;10153664;28;20016;-63
2023/04/28 13:36:00;;;;;;;2.22;1.73;;;20.10;99.90;;;;;;10162263;28;20040;-64
2023/04/28 13:40:51;;;;;;;3.78;1.65;;;20.20;99.90;;;;;;10140271;28;20405;-61
2023/04/28 13:45:42;;;;;;;3.03;1.50;;;19.90;99.90;;;;;;10127183;28;20025;-61
2023/04/28 13:50:32;;;;;;;2.35;1.58;;;19.70;99.90;;;;;;10142855;28;20402;-61
2023/04/28 13:55:26;;;;;;;2.17;1.50;;;19.50;99.90;;;;;;10133293;28;20025;-64
2023/04/28 14:00:19;;;;;;;2.67;1.17;;;19.40;99.90;;;;;;10156487;28;20059;-63
2023/04/28 14:05:10;;;;;;;1.33;1.00;;;19.50;99.90;;;;;;10150045;28;20028;-65
2023/04/28 14:10:01;;;;;;;2.17;0.98;;;21.50;99.90;;;;;;10142059;28;20071;-65
2023/04/28 14:14:51;;;;;;;0.90;0.82;;;21.60;99.90;;;;;;10154080;28;20021;-63
2023/04/28 14:19:43;;;;;;;1.02;0.77;;;21.20;99.90;;;;;;10151700;28;20055;-66
2023/04/28 14:24:34;;;;;;;3.35;1.08;;;20.60;99.90;;;;;;10137889;28;20469;-65
2023/04/28 14:29:25;;;;;;;2.33;0.70;;;20.60;99.90;;;;;;10142943;28;20032;-69
2023/04/28 14:34:15;;;;;;;1.50;0.98;;;20.00;99.90;;;;;;10173766;28;20031;-65
2023/04/28 14:39:06;;;;;;;1.67;0.77;;;19.70;99.90;;;;;;10150476;28;20214;-63
2023/04/28 14:43:57;;;;;;;2.25;1.08;;;19.70;99.90;;;;;;10142498;28;20032;-60
2023/04/28 14:48:49;;;;;;;1.30;1.13;;;19.50;99.90;;;;;;10149407;28;20752;-62
2023/04/28 14:53:40;;;;;;;1.00;0.90;;;19.40;99.90;;;;;;10150355;28;20296;-63
2023/04/28 14:58:31;;;;;;;1.92;1.15;;;19.40;99.90;;;;;;10173438;28;20263;-64
2023/04/28 15:03:22;;;;;;;1.15;1.02;;;19.60;99.90;;;;;;10153784;28;20044;-64
2023/04/28 15:08:12;;;;;;;1.48;0.98;;;19.90;99.90;;;;;;10149926;28;20081;-60
2023/04/28 15:13:03;;;;;;;1.17;1.08;;;20.00;99.90;;;;;;10156282;28;20037;-62
2023/04/28 15:17:59;;;;;;;1.33;1.00;;;19.90;99.90;;;;;;10162228;28;20393;-62
2023/04/28 15:22:50;;;;;;;2.28;1.10;;;19.90;99.90;;;;;;10143208;28;20519;-62
2023/04/28 15:27:40;;;;;;;1.50;1.05;;;19.60;99.90;;;;;;10141279;28;20351;-67
2023/04/28 15:32:31;;;;;;;2.50;1.27;;;20.40;99.90;;;;;;10166375;28;20163;-64
2023/04/28 15:37:42;;;;;;;2.38;1.40;;;24.60;99.90;;;;;;10161084;28;20469;-62
2023/04/28 15:42:33;;;;;;;4.07;1.10;;;26.50;99.90;;;;;;10136690;28;20039;-62
2023/04/28 15:47:24;;;;;;;3.83;0.93;;;27.10;99.90;;;;;;10141479;28;20413;-64
2023/04/28 15:52:15;;;;;;;2.75;0.95;;;29.70;99.90;;;;;;10139384;28;20028;-63
2023/04/28 15:57:06;;;;;;;2.40;0.77;;;26.60;99.90;;;;;;10170927;28;20037;-62
2023/04/28 16:01:57;;;;;;;1.35;0.90;;;24.10;99.90;;;;;;10171028;28;20431;-60
2023/04/28 16:06:49;;;;;;;1.35;0.95;;;22.60;99.90;;;;;;10145386;28;20028;-61
2023/04/28 16:11:40;;;;;;;4.68;1.80;;;21.80;99.90;;;;;;10149255;28;20051;-61
2023/04/28 16:16:31;;;;;;;4.63;2.83;;;21.50;99.90;;;;;;10149158;28;20047;-64
2023/04/28 16:21:22;;;;;;;2.25;1.63;;;21.60;99.90;;;;;;10151051;28;20050;-64
2023/04/28 16:26:13;;;;;;;2.17;1.30;;;26.10;99.90;;;;;;10159488;28;20027;-62
2023/04/28 16:31:04;;;;;;;5.03;1.75;;;30.40;99.80;;;;;;10153342;28;20040;-62
2023/04/28 16:35:57;;;;;;;2.92;1.55;;;32.50;97.90;;;;;;10177546;28;20114;-62
2023/04/28 16:40:48;;;;;;;2.47;1.20;;;31.60;97.60;;;;;;10154552;28;20494;-63
2023/04/28 16:45:39;;;;;;;2.47;2.03;;;31.10;98.20;;;;;;10145942;28;20044;-63
2023/04/28 16:50:31;;;;;;;2.05;1.38;;;28.90;99.40;;;;;;10151604;28;20434;-63
2023/04/28 16:55:22;;;;;;;1.58;1.10;;;25.70;99.90;;;;;;10161273;28;20480;-65
2023/04/28 17:00:13;;;;;;;1.60;1.10;;;28.70;99.50;;;;;;10165227;28;20059;-62
2023/04/28 17:05:04;;;;;;;1.88;1.20;;;25.60;99.90;;;;;;10151332;28;20021;-63
2023/04/28 17:09:55;;;;;;;1.95;0.90;;;25.10;99.90;;;;;;10144509;28;20136;-63
2023/04/28 17:14:46;;;;;;;1.77;1.10;;;26.90;99.30;;;;;;10148495;28;20474;-62
2023/04/28 17:19:38;;;;;;;2.65;1.73;;;24.20;99.90;;;;;;10155682;28;20343;-63
2023/04/28 17:24:28;;;;;;;2.95;1.70;;;22.80;99.90;;;;;;10137352;28;20503;-63
2023/04/28 17:29:20;;;;;;;5.45;1.77;;;21.80;99.90;;;;;;10153413;28;20025;-67
2023/04/28 17:34:11;;;;;;;2.80;1.63;;;21.60;99.90;;;;;;10142867;28;20065;-66
2023/04/28 17:39:03;;;;;;;3.60;1.70;;;21.60;99.90;;;;;;10138638;28;20035;-67
2023/04/28 17:43:54;;;;;;;3.53;2.30;;;21.60;99.90;;;;;;10140105;28;20078;-64
2023/04/28 17:48:44;;;;;;;2.60;1.33;;;21.40;99.90;;;;;;10137123;28;20045;-64
2023/04/28 17:53:36;;;;;;;3.90;1.52;;;21.10;99.90;;;;;;10136539;28;20031;-65
2023/04/28 17:58:27;;;;;;;3.72;1.80;;;21.00;99.90;;;;;;10136762;28;20029;-68
2023/04/28 18:03:18;;;;;;;2.80;2.20;;;20.80;99.90;;;;;;10137316;28;20095;-67
2023/04/28 18:08:09;;;;;;;3.78;3.10;;;20.60;99.90;;;;;;10135880;28;20024;-67
2023/04/28 18:13:01;;;;;;;4.60;2.30;;;20.50;99.90;;;;;;10121144;28;20270;-67
2023/04/28 18:17:51;;;;;;;3.30;1.80;;;20.40;99.90;;;;;;10124147;28;20164;-63
2023/04/28 18:22:42;;;;;;;4.15;2.08;;;20.20;99.90;;;;;;10137025;28;20525;-67
2023/04/28 18:27:33;;;;;;;4.97;2.28;;;20.10;99.90;;;;;;10125101;28;20033;-65
2023/04/28 18:32:24;;;;;;;6.82;2.05;;;20.00;99.90;;;;;;10129892;28;20528;-66
2023/04/28 18:37:15;;;;;;;3.85;2.13;;;19.80;99.90;;;;;;10130934;28;20024;-66
2023/04/28 18:42:05;;;;;;;5.60;2.78;;;19.80;99.90;;;;;;10155616;28;20032;-63
2023/04/28 18:46:56;;;;;;;8.40;3.45;;;19.80;99.90;;;;;;10166874;28;20496;-66
2023/04/28 18:51:47;;;;;;;6.40;3.00;;;19.70;99.90;;;;;;10156611;28;20051;-61
2023/04/28 18:56:37;;;;;;;5.72;3.70;;;19.60;99.90;;;;;;10132652;28;20038;-62
2023/04/28 19:01:28;;;;;;;5.82;3.10;;;19.70;99.90;;;;;;10154257;28;20438;-62
2023/04/28 19:06:19;;;;;;;6.22;3.35;;;19.60;99.90;;;;;;10137051;28;20025;-65
2023/04/28 19:11:10;;;;;;;4.47;2.25;;;19.50;99.90;;;;;;10148455;28;20035;-63
2023/04/28 19:16:01;;;;;;;2.30;2.10;;;19.40;99.90;;;;;;10146555;28;20552;-67
2023/04/28 19:20:59;;;;;;;4.47;2.95;;;19.40;99.90;;;;;;10126918;28;20032;-65
2023/04/28 19:25:50;;;;;;;3.72;2.55;;;19.40;99.90;;;;;;10123137;28;20024;-62
2023/04/28 19:30:40;;;;;;;6.00;3.15;;;19.30;99.90;;;;;;10130642;28;20028;-63
2023/04/28 19:35:32;;;;;;;5.63;2.83;;;19.20;99.90;;;;;;10123661;28;20056;-64
2023/04/28 19:40:25;;;;;;;4.00;2.20;;;19.30;99.90;;;;;;10152906;28;20493;-62
2023/04/28 19:45:16;;;;;;;3.03;1.90;;;19.20;99.90;;;;;;10146509;28;20097;-64
2023/04/28 19:50:08;;;;;;;5.57;3.03;;;19.10;99.90;;;;;;10144858;28;20567;-63
2023/04/28 19:54:59;;;;;;;2.80;1.83;;;19.00;99.90;;;;;;10157541;28;20024;-60
2023/04/28 19:59:50;;;;;;;3.60;2.20;;;19.00;99.90;;;;;;10149097;28;20078;-61
2023/04/28 20:04:41;;;;;;;3.45;2.00;;;19.00;99.90;;;;;;10139269;28;20032;-60
2023/04/28 20:09:33;;;;;;;3.92;2.28;;;18.90;99.90;;;;;;10146382;28;20202;-65
2023/04/28 20:14:24;;;;;;;4.55;2.80;;;18.90;99.90;;;;;;10131509;28;20035;-62
2023/04/28 20:19:15;;;;;;;2.85;1.80;;;19.00;99.90;;;;;;10140896;28;20024;-66
2023/04/28 20:24:07;;;;;;;5.80;3.70;;;18.90;99.90;;;;;;10122763;28;20044;-60
2023/04/28 20:28:57;;;;;;;67.72;35.65;;;19.00;99.90;;;;;;10129786;28;20025;-62
2023/04/28 20:33:48;;;;;;;20.90;10.18;;;19.10;99.90;;;;;;10143789;28;20434;-62
2023/04/28 20:38:39;;;;;;;5.32;3.45;;;19.00;99.90;;;;;;10146003;28;20089;-61
2023/04/28 20:43:29;;;;;;;4.20;3.10;;;18.90;99.90;;;;;;10145336;28;20582;-65
2023/04/28 20:48:20;;;;;;;4.15;2.70;;;18.80;99.90;;;;;;10137038;28;20395;-68
2023/04/28 20:53:11;;;;;;;3.92;2.67;;;18.60;99.90;;;;;;10140605;28;20024;-66
2023/04/28 20:58:02;;;;;;;5.97;3.83;;;18.40;99.90;;;;;;10140374;28;20090;-71
2023/04/28 21:02:52;;;;;;;6.35;2.88;;;18.40;99.90;;;;;;10136045;28;20037;-67
2023/04/28 21:07:43;;;;;;;5.85;3.53;;;18.30;99.90;;;;;;10131992;28;20032;-60
2023/04/28 21:12:34;;;;;;;4.28;3.03;;;18.30;99.90;;;;;;10121132;28;20036;-71
2023/04/28 21:17:25;;;;;;;3.47;2.55;;;18.30;99.90;;;;;;10150377;28;20079;-66
2023/04/28 21:22:16;;;;;;;5.22;1.92;;;18.30;99.90;;;;;;10142515;28;20058;-66
2023/04/28 21:27:06;;;;;;;2.22;1.83;;;18.30;99.90;;;;;;10169041;28;20016;-72
2023/04/28 21:31:57;;;;;;;4.53;2.00;;;18.20;99.90;;;;;;10132033;28;20028;-67
2023/04/28 21:36:48;;;;;;;2.65;1.88;;;18.20;99.90;;;;;;10142280;28;20033;-61
2023/04/28 21:41:38;;;;;;;9.52;4.55;;;18.10;99.90;;;;;;10180149;28;20058;-60
2023/04/28 21:46:29;;;;;;;6.82;4.40;;;18.10;99.90;;;;;;10144088;28;20025;-60
2023/04/28 21:51:20;;;;;;;5.03;2.53;;;18.00;99.90;;;;;;10121401;28;20063;-61
2023/04/28 21:56:10;;;;;;;4.68;1.92;;;18.00;99.90;;;;;;10133337;28;20505;-63
2023/04/28 22:01:04;;;;;;;2.65;1.92;;;18.00;99.90;;;;;;10150197;28;20486;-63
2023/04/28 22:05:55;;;;;;;3.38;2.30;;;18.00;99.90;;;;;;10154492;28;20086;-67
2023/04/28 22:10:46;;;;;;;6.95;1.80;;;17.90;99.90;;;;;;10166732;28;20241;-63
2023/04/28 22:15:36;;;;;;;2.90;1.58;;;17.90;99.90;;;;;;10151522;28;20184;-60
2023/04/28 22:20:27;;;;;;;3.50;1.60;;;17.70;99.90;;;;;;10120506;28;20029;-67
2023/04/28 22:25:18;;;;;;;1.85;1.40;;;17.70;99.90;;;;;;10143220;28;20041;-66
2023/04/28 22:30:09;;;;;;;2.67;1.60;;;17.80;99.90;;;;;;10140583;28;20043;-67
2023/04/28 22:35:00;;;;;;;6.15;1.83;;;17.70;99.90;;;;;;10164770;28;20036;-67
2023/04/28 22:39:51;;;;;;;1.98;1.48;;;17.70;99.90;;;;;;10146734;28;20020;-66
2023/04/28 22:44:41;;;;;;;5.63;3.00;;;17.70;99.90;;;;;;10152125;28;20038;-67
2023/04/28 22:49:32;;;;;;;2.10;1.40;;;17.70;99.90;;;;;;10140695;28;20049;-66
2023/04/28 22:54:23;;;;;;;3.22;1.85;;;17.70;99.90;;;;;;10138866;28;20494;-59
2023/04/28 22:59:14;;;;;;;2.40;1.65;;;17.70;99.90;;;;;;10138650;28;20378;-63
2023/04/28 23:04:04;;;;;;;2.08;1.70;;;17.70;99.90;;;;;;10160617;28;20043;-61
2023/04/28 23:08:55;;;;;;;2.67;1.33;;;17.60;99.90;;;;;;10161010;28;20051;-62
2023/04/28 23:13:46;;;;;;;2.50;1.52;;;17.60;99.90;;;;;;10137663;28;20033;-62
2023/04/28 23:18:36;;;;;;;3.80;1.67;;;17.50;99.90;;;;;;10137691;28;20027;-62
2023/04/28 23:23:27;;;;;;;4.45;2.00;;;17.50;99.90;;;;;;10149613;28;20064;-60
2023/04/28 23:28:18;;;;;;;2.28;2.00;;;17.40;99.90;;;;;;10136804;28;20021;-60
2023/04/28 23:33:09;;;;;;;3.35;1.90;;;17.40;99.90;;;;;;10142827;28;20031;-59
2023/04/28 23:38:00;;;;;;;2.80;2.03;;;17.40;99.90;;;;;;10156513;28;20017;-59
2023/04/28 23:42:51;;;;;;;3.33;2.45;;;17.30;99.90;;;;;;10144097;28;20036;-62
2023/04/28 23:47:42;;;;;;;3.35;1.88;;;17.40;99.90;;;;;;10142239;28;20045;-60
2023/04/28 23:52:32;;;;;;;1.88;1.67;;;17.40;99.90;;;;;;10148299;28;20024;-58
2023/04/28 23:57:23;;;;;;;5.05;2.20;;;17.30;99.90;;;;;;10126249;28;20058;-60
